createdAt,value
2018-09-18T00:01:05.695Z,18.65
2018-09-18T00:04:09.171Z,18.61
2018-09-18T00:07:13.193Z,18.56
2018-09-18T00:10:16.714Z,18.49
2018-09-18T00:13:20.375Z,18.46
2018-09-18T00:16:23.831Z,18.43
2018-09-18T00:19:27.285Z,18.41
2018-09-18T00:22:30.920Z,18.45
2018-09-18T00:25:34.394Z,18.50
2018-09-18T00:28:37.822Z,18.55
2018-09-18T00:31:42.095Z,18.61
2018-09-18T00:34:45.423Z,18.61
2018-09-18T00:37:48.843Z,18.57
2018-09-18T00:40:52.330Z,18.57
2018-09-18T00:43:56.087Z,18.57
2018-09-18T00:47:00.841Z,18.67
2018-09-18T00:50:04.391Z,18.74
2018-09-18T00:53:07.839Z,18.72
2018-09-18T00:56:11.972Z,18.73
2018-09-18T00:59:15.417Z,18.74
2018-09-18T01:02:18.845Z,18.70
2018-09-18T01:05:22.209Z,18.68
2018-09-18T01:08:25.705Z,18.64
2018-09-18T01:11:29.105Z,18.65
2018-09-18T01:14:33.721Z,18.60
2018-09-18T01:17:37.336Z,18.59
2018-09-18T01:20:40.806Z,18.59
2018-09-18T01:23:44.261Z,18.58
2018-09-18T01:26:47.634Z,18.46
2018-09-18T01:29:51.057Z,18.45
2018-09-18T01:32:54.467Z,18.46
2018-09-18T01:35:57.834Z,18.44
2018-09-18T01:39:01.235Z,18.43
2018-09-18T01:42:04.671Z,18.42
2018-09-18T01:45:08.089Z,18.41
2018-09-18T01:48:11.463Z,18.36
2018-09-18T01:51:14.840Z,18.37
2018-09-18T01:54:18.696Z,18.35
2018-09-18T01:57:22.218Z,18.31
2018-09-18T02:00:25.673Z,18.29
2018-09-18T02:03:29.288Z,18.26
2018-09-18T02:06:32.781Z,18.19
2018-09-18T02:09:36.279Z,18.11
2018-09-18T02:12:40.290Z,18.05
2018-09-18T02:15:43.776Z,17.98
2018-09-18T02:18:47.302Z,17.96
2018-09-18T02:21:50.804Z,17.89
2018-09-18T02:24:54.435Z,17.87
2018-09-18T02:27:57.907Z,17.85
2018-09-18T02:31:01.492Z,17.87
2018-09-18T02:34:05.030Z,17.87
2018-09-18T02:37:08.512Z,17.92
2018-09-18T02:40:12.063Z,17.86
2018-09-18T02:43:15.525Z,17.86
2018-09-18T02:46:19.233Z,17.85
2018-09-18T02:49:22.724Z,17.79
2018-09-18T02:52:26.232Z,17.74
2018-09-18T02:55:29.745Z,17.66
2018-09-18T02:58:33.236Z,17.62
2018-09-18T03:01:36.974Z,17.59
2018-09-18T03:04:40.451Z,17.53
2018-09-18T03:07:43.948Z,17.56
2018-09-18T03:10:47.459Z,17.52
2018-09-18T03:13:50.967Z,17.49
2018-09-18T03:16:54.453Z,17.43
2018-09-18T03:19:57.965Z,17.41
2018-09-18T03:23:01.452Z,17.45
2018-09-18T03:26:04.974Z,17.44
2018-09-18T03:29:08.473Z,17.46
2018-09-18T03:32:11.966Z,17.34
2018-09-18T03:35:15.454Z,17.33
2018-09-18T03:38:18.881Z,17.30
2018-09-18T03:41:22.431Z,17.30
2018-09-18T03:44:25.960Z,17.27
2018-09-18T03:47:29.474Z,17.29
2018-09-18T03:50:33.005Z,17.24
2018-09-18T03:53:36.499Z,17.25
2018-09-18T03:56:40.161Z,17.17
2018-09-18T03:59:43.617Z,17.07
2018-09-18T04:02:47.110Z,16.99
2018-09-18T04:05:51.225Z,16.93
2018-09-18T04:08:54.735Z,16.90
2018-09-18T04:11:58.210Z,16.86
2018-09-18T04:15:01.919Z,16.89
2018-09-18T04:18:05.415Z,16.88
2018-09-18T04:21:09.009Z,16.79
2018-09-18T04:24:12.519Z,16.72
2018-09-18T04:27:15.936Z,16.70
2018-09-18T04:30:19.603Z,16.70
2018-09-18T04:33:23.028Z,16.68
2018-09-18T04:36:26.632Z,16.69
2018-09-18T04:39:30.051Z,16.70
2018-09-18T04:42:33.536Z,16.63
2018-09-18T04:45:37.080Z,16.61
2018-09-18T04:48:40.538Z,16.58
2018-09-18T04:51:44.046Z,16.58
2018-09-18T04:54:47.537Z,16.60
2018-09-18T04:57:51.084Z,16.61
2018-09-18T05:00:54.661Z,16.53
2018-09-18T05:03:58.057Z,16.53
2018-09-18T05:07:01.505Z,16.49
2018-09-18T05:10:05.346Z,16.51
2018-09-18T05:13:08.972Z,16.52
2018-09-18T05:16:12.383Z,16.52
2018-09-18T05:19:15.804Z,16.57
2018-09-18T05:22:19.270Z,16.61
2018-09-18T05:25:22.782Z,16.60
2018-09-18T05:28:26.224Z,16.63
2018-09-18T05:31:29.754Z,16.62
2018-09-18T05:34:33.480Z,16.61
2018-09-18T05:37:36.946Z,16.65
2018-09-18T05:40:40.716Z,16.64
2018-09-18T05:43:44.093Z,16.65
2018-09-18T05:46:47.727Z,16.58
2018-09-18T05:49:51.136Z,16.61
2018-09-18T05:52:54.484Z,16.61
2018-09-18T05:55:57.897Z,16.59
2018-09-18T05:59:01.307Z,16.63
2018-09-18T06:02:04.827Z,16.66
2018-09-18T06:05:08.563Z,16.68
2018-09-18T06:08:12.015Z,16.80
2018-09-18T06:11:16.431Z,16.89
2018-09-18T06:14:19.847Z,17.04
2018-09-18T06:17:23.277Z,17.08
2018-09-18T06:20:26.724Z,17.18
2018-09-18T06:23:30.148Z,17.28
2018-09-18T06:26:33.547Z,17.34
2018-09-18T06:29:38.119Z,17.46
2018-09-18T06:32:41.596Z,17.62
2018-09-18T06:35:45.140Z,17.77
2018-09-18T06:38:50.784Z,17.89
2018-09-18T06:41:55.261Z,18.04
2018-09-18T06:44:58.687Z,18.18
2018-09-18T06:48:02.261Z,18.33
2018-09-18T06:51:05.672Z,18.48
2018-09-18T06:54:09.104Z,18.59
2018-09-18T06:57:12.653Z,18.69
2018-09-18T07:00:16.060Z,18.83
2018-09-18T07:03:19.454Z,18.95
2018-09-18T07:06:23.158Z,19.12
2018-09-18T07:09:26.721Z,19.31
2018-09-18T07:12:30.085Z,19.49
2018-09-18T07:15:33.463Z,19.64
2018-09-18T07:18:36.857Z,19.84
2018-09-18T07:21:40.264Z,19.96
2018-09-18T07:24:43.793Z,20.17
2018-09-18T07:27:47.294Z,20.33
2018-09-18T07:30:50.787Z,20.41
2018-09-18T07:33:54.378Z,20.55
2018-09-18T07:36:57.760Z,20.72
2018-09-18T07:40:01.283Z,20.77
2018-09-18T07:43:05.410Z,20.87
2018-09-18T07:46:08.955Z,21.02
2018-09-18T07:49:12.507Z,21.12
2018-09-18T07:52:16.238Z,21.21
2018-09-18T07:55:19.722Z,21.30
2018-09-18T07:58:23.231Z,21.36
2018-09-18T08:01:26.885Z,21.47
2018-09-18T08:04:30.336Z,21.53
2018-09-18T08:07:33.831Z,21.62
2018-09-18T08:10:37.329Z,21.76
2018-09-18T08:13:40.942Z,21.77
2018-09-18T08:16:44.420Z,21.91
2018-09-18T08:19:48.205Z,22.04
2018-09-18T08:22:51.904Z,22.14
2018-09-18T08:25:55.374Z,22.20
2018-09-18T08:28:59.288Z,22.18
2018-09-18T08:32:02.787Z,22.37
2018-09-18T08:35:06.498Z,22.63
2018-09-18T08:38:09.969Z,22.82
2018-09-18T08:41:13.575Z,23.00
2018-09-18T08:44:17.326Z,23.18
2018-09-18T08:47:20.779Z,23.22
2018-09-18T08:50:24.282Z,23.29
2018-09-18T08:53:28.039Z,23.57
2018-09-18T08:56:32.098Z,23.77
2018-09-18T08:59:35.637Z,23.80
2018-09-18T09:02:39.176Z,23.98
2018-09-18T09:05:42.617Z,24.13
2018-09-18T09:08:46.316Z,24.24
2018-09-18T09:11:49.747Z,24.22
2018-09-18T09:14:53.289Z,24.32
2018-09-18T09:17:56.834Z,24.51
2018-09-18T09:21:01.335Z,24.60
2018-09-18T09:24:04.857Z,24.76
2018-09-18T09:27:08.418Z,24.80
2018-09-18T09:30:12.097Z,24.97
2018-09-18T09:33:15.576Z,25.08
2018-09-18T09:36:19.046Z,25.16
2018-09-18T09:39:22.561Z,25.38
2018-09-18T09:42:26.960Z,25.41
2018-09-18T09:45:30.433Z,25.18
2018-09-18T09:48:35.422Z,25.39
2018-09-18T09:51:39.756Z,25.63
2018-09-18T09:54:43.164Z,26.02
2018-09-18T09:57:46.670Z,26.25
2018-09-18T10:00:55.462Z,26.49
2018-09-18T10:03:59.673Z,26.54
2018-09-18T10:07:03.107Z,26.79
2018-09-18T10:10:07.145Z,26.81
2018-09-18T10:13:10.666Z,26.97
2018-09-18T10:16:14.197Z,27.05
2018-09-18T10:19:17.716Z,26.98
2018-09-18T10:22:21.138Z,27.15
2018-09-18T10:25:24.694Z,27.23
2018-09-18T10:28:28.196Z,27.51
2018-09-18T10:31:32.063Z,27.31
2018-09-18T10:34:35.543Z,27.35
2018-09-18T10:37:39.025Z,27.31
2018-09-18T10:40:42.893Z,27.40
2018-09-18T10:43:46.747Z,27.71
2018-09-18T10:46:50.201Z,27.88
2018-09-18T10:49:53.696Z,27.84
2018-09-18T10:52:57.089Z,28.02
2018-09-18T10:56:00.469Z,28.16
2018-09-18T10:59:04.004Z,28.47
2018-09-18T11:02:07.787Z,28.48
2018-09-18T11:05:11.213Z,28.52
2018-09-18T11:08:14.789Z,28.39
2018-09-18T11:11:18.683Z,28.37
2018-09-18T11:14:22.421Z,28.58
2018-09-18T11:17:25.627Z,28.46
2018-09-18T11:20:29.067Z,28.53
2018-09-18T11:23:32.615Z,28.46
2018-09-18T11:26:36.449Z,28.75
2018-09-18T11:29:39.849Z,28.83
2018-09-18T11:32:43.304Z,29.03
2018-09-18T11:35:46.746Z,29.05
2018-09-18T11:38:50.307Z,28.92
2018-09-18T11:41:53.717Z,29.01
2018-09-18T11:44:57.185Z,29.09
2018-09-18T11:48:00.668Z,28.97
2018-09-18T11:51:04.176Z,29.09
2018-09-18T11:54:08.358Z,29.20
2018-09-18T11:57:13.660Z,29.02
2018-09-18T12:00:17.377Z,29.10
2018-09-18T12:03:20.917Z,29.22
2018-09-18T12:06:24.732Z,29.26
2018-09-18T12:09:28.127Z,29.31
2018-09-18T12:12:32.122Z,29.15
2018-09-18T12:15:35.557Z,29.24
2018-09-18T12:18:38.986Z,29.33
2018-09-18T12:21:42.437Z,29.43
2018-09-18T12:24:46.103Z,29.44
2018-09-18T12:27:50.650Z,29.52
2018-09-18T12:30:53.961Z,29.76
2018-09-18T12:33:58.498Z,29.85
2018-09-18T12:37:02.385Z,29.94
2018-09-18T12:40:05.844Z,29.93
2018-09-18T12:43:10.124Z,29.87
2018-09-18T12:46:14.036Z,30.00
2018-09-18T12:49:17.586Z,30.00
2018-09-18T12:52:21.059Z,30.10
2018-09-18T12:55:24.740Z,30.20
2018-09-18T12:58:28.941Z,30.18
2018-09-18T13:01:32.488Z,30.20
2018-09-18T13:04:36.013Z,30.25
2018-09-18T13:07:39.670Z,30.30
2018-09-18T13:10:43.659Z,30.24
2018-09-18T13:13:47.220Z,30.34
2018-09-18T13:16:50.709Z,30.29
2018-09-18T13:19:54.318Z,30.34
2018-09-18T13:22:57.808Z,30.38
2018-09-18T13:26:01.305Z,30.26
2018-09-18T13:29:04.892Z,30.46
2018-09-18T13:32:08.515Z,30.48
2018-09-18T13:35:12.180Z,30.67
2018-09-18T13:38:15.639Z,30.85
2018-09-18T13:41:20.132Z,30.90
2018-09-18T13:44:23.653Z,31.03
2018-09-18T13:47:27.242Z,31.10
2018-09-18T13:50:30.747Z,31.32
2018-09-18T13:53:34.220Z,31.22
2018-09-18T13:56:37.744Z,31.38
2018-09-18T13:59:41.249Z,31.46
2018-09-18T14:02:44.655Z,31.39
2018-09-18T14:05:48.501Z,31.64
2018-09-18T14:08:52.820Z,31.73
2018-09-18T14:11:56.709Z,31.78
2018-09-18T14:15:00.320Z,31.87
2018-09-18T14:18:03.674Z,31.90
2018-09-18T14:21:08.577Z,31.92
2018-09-18T14:24:12.039Z,31.71
2018-09-18T14:27:16.219Z,31.41
2018-09-18T14:30:19.804Z,31.31
2018-09-18T14:33:23.546Z,31.34
2018-09-18T14:36:26.990Z,31.20
2018-09-18T14:39:30.825Z,31.04
2018-09-18T14:42:34.752Z,30.95
2018-09-18T14:45:38.276Z,30.72
2018-09-18T14:48:41.999Z,30.59
2018-09-18T14:51:45.607Z,30.41
2018-09-18T14:54:49.030Z,30.18
2018-09-18T14:57:52.651Z,30.14
2018-09-18T15:00:56.229Z,30.11
2018-09-18T15:03:59.729Z,30.10
2018-09-18T15:07:09.160Z,30.31
2018-09-18T15:10:12.695Z,30.62
2018-09-18T15:13:16.359Z,30.53
2018-09-18T15:16:19.771Z,30.37
2018-09-18T15:19:23.359Z,30.25
2018-09-18T15:22:26.975Z,30.18
2018-09-18T15:25:31.150Z,30.18
2018-09-18T15:28:35.224Z,30.50
2018-09-18T15:31:38.611Z,30.69
2018-09-18T15:34:42.595Z,30.83
2018-09-18T15:37:46.165Z,30.78
2018-09-18T15:40:49.902Z,30.64
2018-09-18T15:43:53.407Z,30.61
2018-09-18T15:46:56.885Z,30.42
2018-09-18T15:50:00.504Z,30.22
2018-09-18T15:53:03.949Z,30.21
2018-09-18T15:56:07.371Z,30.26
2018-09-18T15:59:10.928Z,30.25
2018-09-18T16:02:14.364Z,30.48
2018-09-18T16:05:18.576Z,30.62
2018-09-18T16:08:22.106Z,30.73
2018-09-18T16:11:25.599Z,30.76
2018-09-18T16:14:29.167Z,30.47
2018-09-18T16:17:32.486Z,30.58
2018-09-18T16:20:36.006Z,30.65
2018-09-18T16:23:39.526Z,30.61
2018-09-18T16:26:43.167Z,30.58
2018-09-18T16:29:46.669Z,30.51
2018-09-18T16:32:50.468Z,30.34
2018-09-18T16:35:53.980Z,30.22
2018-09-18T16:38:57.513Z,30.09
2018-09-18T16:42:00.968Z,29.98
2018-09-18T16:45:05.480Z,29.94
2018-09-18T16:48:08.977Z,29.83
2018-09-18T16:51:12.348Z,29.65
2018-09-18T16:54:15.801Z,29.55
2018-09-18T16:57:19.335Z,29.47
2018-09-18T17:00:22.888Z,29.40
2018-09-18T17:03:26.433Z,29.26
2018-09-18T17:06:29.855Z,29.23
2018-09-18T17:09:33.284Z,29.20
2018-09-18T17:12:36.787Z,29.07
2018-09-18T17:15:42.487Z,29.08
2018-09-18T17:18:46.591Z,28.96
2018-09-18T17:21:50.067Z,28.86
2018-09-18T17:24:53.894Z,28.76
2018-09-18T17:27:57.429Z,28.66
2018-09-18T17:31:00.830Z,28.59
2018-09-18T17:34:04.677Z,28.53
2018-09-18T17:37:08.136Z,28.48
2018-09-18T17:40:11.646Z,28.37
2018-09-18T17:43:15.106Z,28.30
2018-09-18T17:46:18.550Z,28.22
2018-09-18T17:49:22.153Z,28.11
2018-09-18T17:52:25.718Z,28.07
2018-09-18T17:55:29.212Z,28.00
2018-09-18T17:58:33.230Z,27.91
2018-09-18T18:01:37.254Z,27.89
2018-09-18T18:04:40.781Z,27.74
2018-09-18T18:07:44.214Z,27.66
2018-09-18T18:10:48.824Z,27.57
2018-09-18T18:13:52.432Z,27.51
2018-09-18T18:16:55.942Z,27.43
2018-09-18T18:20:00.058Z,27.37
2018-09-18T18:23:03.693Z,27.30
2018-09-18T18:26:07.204Z,27.24
2018-09-18T18:29:10.746Z,27.15
2018-09-18T18:32:14.329Z,27.05
2018-09-18T18:35:18.085Z,27.02
2018-09-18T18:38:23.754Z,26.98
2018-09-18T18:41:27.361Z,26.97
2018-09-18T18:44:30.827Z,26.92
2018-09-18T18:47:34.374Z,26.86
2018-09-18T18:50:38.152Z,26.84
2018-09-18T18:53:41.769Z,26.80
2018-09-18T18:56:45.296Z,26.77
2018-09-18T18:59:48.855Z,26.67
2018-09-18T19:02:52.369Z,26.57
2018-09-18T19:05:55.855Z,26.49
2018-09-18T19:08:59.498Z,26.46
2018-09-18T19:12:03.068Z,26.43
2018-09-18T19:15:06.647Z,26.37
2018-09-18T19:18:10.234Z,26.28
2018-09-18T19:21:13.747Z,26.18
2018-09-18T19:24:17.262Z,26.12
2018-09-18T19:27:21.596Z,26.09
2018-09-18T19:30:25.123Z,26.08
2018-09-18T19:33:28.679Z,25.99
2018-09-18T19:36:32.334Z,25.96
2018-09-18T19:39:36.713Z,25.81
2018-09-18T19:42:40.475Z,25.81
2018-09-18T19:45:44.624Z,25.75
2018-09-18T19:48:48.067Z,25.66
2018-09-18T19:51:51.625Z,25.58
2018-09-18T19:54:55.081Z,25.50
2018-09-18T19:57:58.590Z,25.36
2018-09-18T20:01:02.070Z,25.26
2018-09-18T20:04:05.604Z,25.23
2018-09-18T20:07:09.076Z,25.21
2018-09-18T20:10:14.070Z,25.17
2018-09-18T20:13:17.605Z,25.14
2018-09-18T20:16:21.318Z,25.07
2018-09-18T20:19:25.703Z,25.06
2018-09-18T20:22:29.242Z,25.00
2018-09-18T20:25:32.762Z,24.94
2018-09-18T20:28:36.288Z,24.85
2018-09-18T20:31:39.775Z,24.81
2018-09-18T20:34:43.239Z,24.79
2018-09-18T20:37:46.666Z,24.74
2018-09-18T20:40:50.224Z,24.70
2018-09-18T20:43:53.746Z,24.66
2018-09-18T20:46:57.936Z,24.65
2018-09-18T20:50:01.399Z,24.62
2018-09-18T20:53:04.913Z,24.53
2018-09-18T20:56:08.447Z,24.52
2018-09-18T20:59:11.885Z,24.47
2018-09-18T21:02:15.463Z,24.44
2018-09-18T21:05:18.792Z,24.36
2018-09-18T21:08:23.597Z,24.37
2018-09-18T21:11:27.570Z,24.30
2018-09-18T21:14:31.976Z,24.23
2018-09-18T21:17:35.557Z,24.17
2018-09-18T21:20:39.015Z,24.13
2018-09-18T21:23:42.476Z,24.09
2018-09-18T21:26:46.035Z,24.07
2018-09-18T21:29:49.562Z,23.95
2018-09-18T21:32:52.973Z,23.92
2018-09-18T21:35:56.677Z,23.90
2018-09-18T21:39:00.114Z,23.88
2018-09-18T21:42:03.609Z,23.79
2018-09-18T21:45:07.254Z,23.76
2018-09-18T21:48:11.541Z,23.75
2018-09-18T21:51:16.036Z,23.73
2018-09-18T21:54:19.536Z,23.69
2018-09-18T21:57:22.938Z,23.65
2018-09-18T22:00:26.373Z,23.60
2018-09-18T22:03:30.261Z,23.54
2018-09-18T22:06:34.777Z,23.47
2018-09-18T22:09:38.189Z,23.39
2018-09-18T22:12:42.088Z,23.31
2018-09-18T22:15:45.481Z,23.19
2018-09-18T22:18:48.905Z,23.15
2018-09-18T22:21:52.756Z,23.11
2018-09-18T22:24:56.476Z,23.04
2018-09-18T22:28:00.003Z,22.97
2018-09-18T22:31:03.453Z,22.95
2018-09-18T22:34:07.255Z,22.81
2018-09-18T22:37:10.733Z,22.68
2018-09-18T22:40:14.141Z,22.60
2018-09-18T22:43:17.508Z,22.54
2018-09-18T22:46:20.904Z,22.55
2018-09-18T22:49:24.317Z,22.59
2018-09-18T22:52:27.746Z,22.57
2018-09-18T22:55:31.130Z,22.56
2018-09-18T22:58:34.607Z,22.49
2018-09-18T23:01:38.324Z,22.46
2018-09-18T23:04:41.742Z,22.44
2018-09-18T23:07:45.130Z,22.46
2018-09-18T23:10:48.994Z,22.49
2018-09-18T23:13:52.851Z,22.46
2018-09-18T23:16:56.614Z,22.46
2018-09-18T23:20:00.069Z,22.42
2018-09-18T23:23:03.835Z,22.35
2018-09-18T23:26:07.858Z,22.30
2018-09-18T23:29:11.469Z,22.25
2018-09-18T23:32:15.087Z,22.18
2018-09-18T23:35:18.681Z,22.14
2018-09-18T23:38:22.479Z,22.09
2018-09-18T23:41:26.018Z,22.04
2018-09-18T23:44:29.742Z,22.05
2018-09-18T23:47:33.332Z,22.06
2018-09-18T23:50:37.050Z,22.01
2018-09-18T23:53:41.455Z,21.95
2018-09-18T23:56:44.951Z,21.93
2018-09-18T23:59:48.457Z,21.93
